sensor_id;sensor_type;location;lat;lon;timestamp;temperature;humidity
9403;DHT22;4741;49.834;10.740;2023-04-25T00:00:41;8.00;99.90
9403;DHT22;4741;49.834;10.740;2023-04-25T00:03:08;8.00;99.90
9403;DHT22;4741;49.834;10.740;2023-04-25T00:05:35;8.00;99.90
9403;DHT22;4741;49.834;10.740;2023-04-25T00:08:03;8.00;99.90
9403;DHT22;4741;49.834;10.740;2023-04-25T00:10:30;8.00;99.90
9403;DHT22;4741;49.834;10.740;2023-04-25T00:12:57;8.00;99.90
9403;DHT22;4741;49.834;10.740;2023-04-25T00:15:25;7.90;99.90
9403;DHT22;4741;49.834;10.740;2023-04-25T00:17:51;8.00;99.90
9403;DHT22;4741;49.834;10.740;2023-04-25T00:20:19;7.90;99.90
9403;DHT22;4741;49.834;10.740;2023-04-25T00:22:46;8.00;99.90
9403;DHT22;4741;49.834;10.740;2023-04-25T00:25:12;8.00;99.90
9403;DHT22;4741;49.834;10.740;2023-04-25T00:27:39;7.90;99.90
9403;DHT22;4741;49.834;10.740;2023-04-25T00:30:06;7.90;99.90
9403;DHT22;4741;49.834;10.740;2023-04-25T00:32:33;7.90;99.90
9403;DHT22;4741;49.834;10.740;2023-04-25T00:34:59;7.90;99.90
9403;DHT22;4741;49.834;10.740;2023-04-25T00:37:26;8.00;99.90
9403;DHT22;4741;49.834;10.740;2023-04-25T00:39:53;7.90;99.90
9403;DHT22;4741;49.834;10.740;2023-04-25T00:42:21;7.90;99.90
9403;DHT22;4741;49.834;10.740;2023-04-25T00:44:47;7.90;99.90
9403;DHT22;4741;49.834;10.740;2023-04-25T00:47:14;7.90;99.90
9403;DHT22;4741;49.834;10.740;2023-04-25T00:49:41;7.80;99.90
9403;DHT22;4741;49.834;10.740;2023-04-25T00:52:08;7.80;99.90
9403;DHT22;4741;49.834;10.740;2023-04-25T00:54:34;7.80;99.90
9403;DHT22;4741;49.834;10.740;2023-04-25T00:57:01;7.80;99.90
9403;DHT22;4741;49.834;10.740;2023-04-25T00:59:28;7.80;99.90
9403;DHT22;4741;49.834;10.740;2023-04-25T01:01:57;7.90;99.90
9403;DHT22;4741;49.834;10.740;2023-04-25T01:04:25;7.90;99.90
9403;DHT22;4741;49.834;10.740;2023-04-25T01:06:53;7.80;99.90
9403;DHT22;4741;49.834;10.740;2023-04-25T01:09:19;7.80;99.90
9403;DHT22;4741;49.834;10.740;2023-04-25T01:11:47;7.70;99.90
9403;DHT22;4741;49.834;10.740;2023-04-25T01:14:13;7.70;99.90
9403;DHT22;4741;49.834;10.740;2023-04-25T01:16:40;7.80;99.90
9403;DHT22;4741;49.834;10.740;2023-04-25T01:19:09;7.80;99.90
9403;DHT22;4741;49.834;10.740;2023-04-25T01:21:37;7.90;99.90
9403;DHT22;4741;49.834;10.740;2023-04-25T01:24:04;7.90;99.90
9403;DHT22;4741;49.834;10.740;2023-04-25T01:26:31;7.90;99.90
9403;DHT22;4741;49.834;10.740;2023-04-25T01:28:58;7.80;99.90
9403;DHT22;4741;49.834;10.740;2023-04-25T01:31:25;7.90;99.90
9403;DHT22;4741;49.834;10.740;2023-04-25T01:33:52;7.90;99.90
9403;DHT22;4741;49.834;10.740;2023-04-25T01:36:19;7.90;99.90
9403;DHT22;4741;49.834;10.740;2023-04-25T01:38:46;7.80;99.90
9403;DHT22;4741;49.834;10.740;2023-04-25T01:41:14;7.70;99.90
9403;DHT22;4741;49.834;10.740;2023-04-25T01:43:40;7.70;99.90
9403;DHT22;4741;49.834;10.740;2023-04-25T01:46:07;7.60;99.90
9403;DHT22;4741;49.834;10.740;2023-04-25T01:48:34;7.60;99.90
9403;DHT22;4741;49.834;10.740;2023-04-25T01:51:00;7.60;99.90
9403;DHT22;4741;49.834;10.740;2023-04-25T01:53:27;7.60;99.90
9403;DHT22;4741;49.834;10.740;2023-04-25T01:55:53;7.50;99.90
9403;DHT22;4741;49.834;10.740;2023-04-25T01:58:20;7.40;99.90
9403;DHT22;4741;49.834;10.740;2023-04-25T02:00:47;7.40;99.90
9403;DHT22;4741;49.834;10.740;2023-04-25T02:03:13;7.40;99.90
9403;DHT22;4741;49.834;10.740;2023-04-25T02:05:40;7.30;99.90
9403;DHT22;4741;49.834;10.740;2023-04-25T02:08:07;7.30;99.90
9403;DHT22;4741;49.834;10.740;2023-04-25T02:10:34;7.30;99.90
9403;DHT22;4741;49.834;10.740;2023-04-25T02:13:01;7.30;99.90
9403;DHT22;4741;49.834;10.740;2023-04-25T02:15:28;7.30;99.90
9403;DHT22;4741;49.834;10.740;2023-04-25T02:17:54;7.30;99.90
9403;DHT22;4741;49.834;10.740;2023-04-25T02:20:22;7.30;99.90
9403;DHT22;4741;49.834;10.740;2023-04-25T02:22:49;7.30;99.90
9403;DHT22;4741;49.834;10.740;2023-04-25T02:25:16;7.40;99.90
9403;DHT22;4741;49.834;10.740;2023-04-25T02:27:43;7.30;99.90
9403;DHT22;4741;49.834;10.740;2023-04-25T02:30:10;7.30;99.90
9403;DHT22;4741;49.834;10.740;2023-04-25T02:32:36;7.30;99.90
9403;DHT22;4741;49.834;10.740;2023-04-25T02:35:03;7.40;99.90
9403;DHT22;4741;49.834;10.740;2023-04-25T02:37:31;7.40;99.90
9403;DHT22;4741;49.834;10.740;2023-04-25T02:39:57;7.30;99.90
9403;DHT22;4741;49.834;10.740;2023-04-25T02:42:24;7.40;99.90
9403;DHT22;4741;49.834;10.740;2023-04-25T02:44:51;7.40;99.90
9403;DHT22;4741;49.834;10.740;2023-04-25T02:47:17;7.40;99.90
9403;DHT22;4741;49.834;10.740;2023-04-25T02:49:44;7.50;99.90
9403;DHT22;4741;49.834;10.740;2023-04-25T02:52:11;7.40;99.90
9403;DHT22;4741;49.834;10.740;2023-04-25T02:54:38;7.40;99.90
9403;DHT22;4741;49.834;10.740;2023-04-25T02:57:05;7.50;99.90
9403;DHT22;4741;49.834;10.740;2023-04-25T02:59:32;7.60;99.90
9403;DHT22;4741;49.834;10.740;2023-04-25T03:01:59;7.50;99.90
9403;DHT22;4741;49.834;10.740;2023-04-25T03:04:25;7.60;99.90
9403;DHT22;4741;49.834;10.740;2023-04-25T03:06:52;7.50;99.90
9403;DHT22;4741;49.834;10.740;2023-04-25T03:09:19;7.60;99.90
9403;DHT22;4741;49.834;10.740;2023-04-25T03:11:46;7.60;99.90
9403;DHT22;4741;49.834;10.740;2023-04-25T03:14:13;7.60;99.90
9403;DHT22;4741;49.834;10.740;2023-04-25T03:16:39;7.60;99.90
9403;DHT22;4741;49.834;10.740;2023-04-25T03:19:06;7.60;99.90
9403;DHT22;4741;49.834;10.740;2023-04-25T03:21:33;7.60;99.90
9403;DHT22;4741;49.834;10.740;2023-04-25T03:24:00;7.60;99.90
9403;DHT22;4741;49.834;10.740;2023-04-25T03:26:27;7.50;99.90
9403;DHT22;4741;49.834;10.740;2023-04-25T03:28:54;7.60;99.90
9403;DHT22;4741;49.834;10.740;2023-04-25T03:31:20;7.50;99.90
9403;DHT22;4741;49.834;10.740;2023-04-25T03:33:47;7.50;99.90
9403;DHT22;4741;49.834;10.740;2023-04-25T03:36:14;7.50;99.90
9403;DHT22;4741;49.834;10.740;2023-04-25T03:38:41;7.50;99.90
9403;DHT22;4741;49.834;10.740;2023-04-25T03:41:08;7.40;99.90
9403;DHT22;4741;49.834;10.740;2023-04-25T03:43:34;7.50;99.90
9403;DHT22;4741;49.834;10.740;2023-04-25T03:46:01;7.50;99.90
9403;DHT22;4741;49.834;10.740;2023-04-25T03:48:28;7.50;99.90
9403;DHT22;4741;49.834;10.740;2023-04-25T03:50:55;7.40;99.90
9403;DHT22;4741;49.834;10.740;2023-04-25T03:53:21;7.40;99.90
9403;DHT22;4741;49.834;10.740;2023-04-25T03:55:48;7.30;99.90
9403;DHT22;4741;49.834;10.740;2023-04-25T03:58:14;7.20;99.90
9403;DHT22;4741;49.834;10.740;2023-04-25T04:00:41;7.20;99.90
9403;DHT22;4741;49.834;10.740;2023-04-25T04:03:07;7.20;99.90
9403;DHT22;4741;49.834;10.740;2023-04-25T04:05:34;7.20;99.90
9403;DHT22;4741;49.834;10.740;2023-04-25T04:08:01;7.10;99.90
9403;DHT22;4741;49.834;10.740;2023-04-25T04:10:28;7.10;99.90
9403;DHT22;4741;49.834;10.740;2023-04-25T04:12:54;7.00;99.90
9403;DHT22;4741;49.834;10.740;2023-04-25T04:15:21;6.90;99.90
9403;DHT22;4741;49.834;10.740;2023-04-25T04:17:48;6.90;99.90
9403;DHT22;4741;49.834;10.740;2023-04-25T04:20:15;6.90;99.90
9403;DHT22;4741;49.834;10.740;2023-04-25T04:22:41;6.90;99.90
9403;DHT22;4741;49.834;10.740;2023-04-25T04:25:08;6.80;99.90
9403;DHT22;4741;49.834;10.740;2023-04-25T04:27:35;6.80;99.90
9403;DHT22;4741;49.834;10.740;2023-04-25T04:30:02;6.90;99.90
9403;DHT22;4741;49.834;10.740;2023-04-25T04:32:29;6.90;99.90
9403;DHT22;4741;49.834;10.740;2023-04-25T04:34:57;6.90;99.90
9403;DHT22;4741;49.834;10.740;2023-04-25T04:37:23;6.80;99.90
9403;DHT22;4741;49.834;10.740;2023-04-25T04:39:50;6.90;99.90
9403;DHT22;4741;49.834;10.740;2023-04-25T04:42:18;6.90;99.90
9403;DHT22;4741;49.834;10.740;2023-04-25T04:44:44;6.90;99.90
9403;DHT22;4741;49.834;10.740;2023-04-25T04:47:11;6.90;99.90
9403;DHT22;4741;49.834;10.740;2023-04-25T04:49:39;6.80;99.90
9403;DHT22;4741;49.834;10.740;2023-04-25T04:52:06;6.70;99.90
9403;DHT22;4741;49.834;10.740;2023-04-25T04:54:32;6.80;99.90
9403;DHT22;4741;49.834;10.740;2023-04-25T04:57:00;6.80;99.90
9403;DHT22;4741;49.834;10.740;2023-04-25T04:59:26;6.80;99.90
9403;DHT22;4741;49.834;10.740;2023-04-25T05:01:53;6.90;99.90
9403;DHT22;4741;49.834;10.740;2023-04-25T05:04:19;6.80;99.90
9403;DHT22;4741;49.834;10.740;2023-04-25T05:06:46;6.80;99.90
9403;DHT22;4741;49.834;10.740;2023-04-25T05:09:14;6.80;99.90
9403;DHT22;4741;49.834;10.740;2023-04-25T05:11:41;6.80;99.90
9403;DHT22;4741;49.834;10.740;2023-04-25T05:14:08;6.80;99.90
9403;DHT22;4741;49.834;10.740;2023-04-25T05:16:34;6.90;99.90
9403;DHT22;4741;49.834;10.740;2023-04-25T05:19:01;6.90;99.90
9403;DHT22;4741;49.834;10.740;2023-04-25T05:21:28;6.80;99.90
9403;DHT22;4741;49.834;10.740;2023-04-25T05:23:55;6.80;99.90
9403;DHT22;4741;49.834;10.740;2023-04-25T05:26:22;6.80;99.90
9403;DHT22;4741;49.834;10.740;2023-04-25T05:28:48;6.90;99.90
9403;DHT22;4741;49.834;10.740;2023-04-25T05:31:17;6.90;99.90
9403;DHT22;4741;49.834;10.740;2023-04-25T05:33:43;7.00;99.90
9403;DHT22;4741;49.834;10.740;2023-04-25T05:36:10;7.00;99.90
9403;DHT22;4741;49.834;10.740;2023-04-25T05:38:37;7.00;99.90
9403;DHT22;4741;49.834;10.740;2023-04-25T05:41:03;7.10;99.90
9403;DHT22;4741;49.834;10.740;2023-04-25T05:43:30;7.20;99.90
9403;DHT22;4741;49.834;10.740;2023-04-25T05:45:57;7.20;99.90
9403;DHT22;4741;49.834;10.740;2023-04-25T05:48:23;7.30;99.90
9403;DHT22;4741;49.834;10.740;2023-04-25T05:50:50;7.30;99.90
9403;DHT22;4741;49.834;10.740;2023-04-25T05:53:18;7.40;99.90
9403;DHT22;4741;49.834;10.740;2023-04-25T05:55:45;7.50;99.90
9403;DHT22;4741;49.834;10.740;2023-04-25T05:58:11;7.50;99.90
9403;DHT22;4741;49.834;10.740;2023-04-25T06:00:38;7.50;99.90
9403;DHT22;4741;49.834;10.740;2023-04-25T06:03:04;7.40;99.90
9403;DHT22;4741;49.834;10.740;2023-04-25T06:05:31;7.50;99.90
9403;DHT22;4741;49.834;10.740;2023-04-25T06:07:58;7.40;99.90
9403;DHT22;4741;49.834;10.740;2023-04-25T06:10:25;7.40;99.90
9403;DHT22;4741;49.834;10.740;2023-04-25T06:12:52;7.40;99.90
9403;DHT22;4741;49.834;10.740;2023-04-25T06:15:18;7.40;99.90
9403;DHT22;4741;49.834;10.740;2023-04-25T06:17:48;7.40;99.90
9403;DHT22;4741;49.834;10.740;2023-04-25T06:20:15;7.40;99.90
9403;DHT22;4741;49.834;10.740;2023-04-25T06:22:42;7.60;99.90
9403;DHT22;4741;49.834;10.740;2023-04-25T06:25:08;7.60;99.90
9403;DHT22;4741;49.834;10.740;2023-04-25T06:27:35;7.80;99.90
9403;DHT22;4741;49.834;10.740;2023-04-25T06:30:02;7.70;99.90
9403;DHT22;4741;49.834;10.740;2023-04-25T06:32:28;7.80;99.90
9403;DHT22;4741;49.834;10.740;2023-04-25T06:34:56;7.80;99.90
9403;DHT22;4741;49.834;10.740;2023-04-25T06:37:23;7.80;99.90
9403;DHT22;4741;49.834;10.740;2023-04-25T06:39:49;7.70;99.90
9403;DHT22;4741;49.834;10.740;2023-04-25T06:42:16;7.90;99.90
9403;DHT22;4741;49.834;10.740;2023-04-25T06:44:43;8.10;99.90
9403;DHT22;4741;49.834;10.740;2023-04-25T06:47:09;8.40;99.90
9403;DHT22;4741;49.834;10.740;2023-04-25T06:52:03;8.60;99.90
9403;DHT22;4741;49.834;10.740;2023-04-25T06:54:30;8.60;99.90
9403;DHT22;4741;49.834;10.740;2023-04-25T06:56:56;8.40;99.90
9403;DHT22;4741;49.834;10.740;2023-04-25T06:59:23;8.50;99.90
9403;DHT22;4741;49.834;10.740;2023-04-25T07:01:50;8.70;99.90
9403;DHT22;4741;49.834;10.740;2023-04-25T07:04:16;8.80;99.90
9403;DHT22;4741;49.834;10.740;2023-04-25T07:06:44;8.80;99.90
9403;DHT22;4741;49.834;10.740;2023-04-25T07:09:11;8.60;99.90
9403;DHT22;4741;49.834;10.740;2023-04-25T07:11:38;8.60;99.90
9403;DHT22;4741;49.834;10.740;2023-04-25T07:14:05;8.70;99.90
9403;DHT22;4741;49.834;10.740;2023-04-25T07:16:31;8.70;99.90
9403;DHT22;4741;49.834;10.740;2023-04-25T07:18:58;8.70;99.90
9403;DHT22;4741;49.834;10.740;2023-04-25T07:21:25;8.70;99.90
9403;DHT22;4741;49.834;10.740;2023-04-25T07:23:52;8.60;99.90
9403;DHT22;4741;49.834;10.740;2023-04-25T07:26:19;9.20;99.90
9403;DHT22;4741;49.834;10.740;2023-04-25T07:28:45;9.20;99.90
9403;DHT22;4741;49.834;10.740;2023-04-25T07:31:17;9.60;99.90
9403;DHT22;4741;49.834;10.740;2023-04-25T07:33:44;9.60;99.90
9403;DHT22;4741;49.834;10.740;2023-04-25T07:36:12;9.70;99.90
9403;DHT22;4741;49.834;10.740;2023-04-25T07:38:39;10.20;99.90
9403;DHT22;4741;49.834;10.740;2023-04-25T07:43:32;11.00;99.90
9403;DHT22;4741;49.834;10.740;2023-04-25T07:48:26;11.50;99.90
9403;DHT22;4741;49.834;10.740;2023-04-25T07:53:20;12.90;99.90
9403;DHT22;4741;49.834;10.740;2023-04-25T07:58:14;12.60;99.90
9403;DHT22;4741;49.834;10.740;2023-04-25T08:00:41;11.20;99.90
9403;DHT22;4741;49.834;10.740;2023-04-25T08:03:09;10.80;99.90
9403;DHT22;4741;49.834;10.740;2023-04-25T08:05:36;11.50;99.90
9403;DHT22;4741;49.834;10.740;2023-04-25T08:08:03;11.40;99.90
9403;DHT22;4741;49.834;10.740;2023-04-25T08:10:30;11.70;99.90
9403;DHT22;4741;49.834;10.740;2023-04-25T08:12:57;11.80;99.90
9403;DHT22;4741;49.834;10.740;2023-04-25T08:15:24;12.30;99.90
9403;DHT22;4741;49.834;10.740;2023-04-25T08:17:52;12.80;99.90
9403;DHT22;4741;49.834;10.740;2023-04-25T08:20:18;12.60;99.90
9403;DHT22;4741;49.834;10.740;2023-04-25T08:22:45;13.10;99.90
9403;DHT22;4741;49.834;10.740;2023-04-25T08:25:12;12.90;99.90
9403;DHT22;4741;49.834;10.740;2023-04-25T08:27:38;12.60;99.90
9403;DHT22;4741;49.834;10.740;2023-04-25T08:30:05;11.30;99.90
9403;DHT22;4741;49.834;10.740;2023-04-25T08:32:32;11.60;99.90
9403;DHT22;4741;49.834;10.740;2023-04-25T08:35:00;12.00;99.90
9403;DHT22;4741;49.834;10.740;2023-04-25T08:37:26;12.50;99.90
9403;DHT22;4741;49.834;10.740;2023-04-25T08:39:53;13.20;99.90
9403;DHT22;4741;49.834;10.740;2023-04-25T08:44:47;13.30;99.90
9403;DHT22;4741;49.834;10.740;2023-04-25T08:47:14;12.80;99.90
9403;DHT22;4741;49.834;10.740;2023-04-25T08:49:43;12.30;99.90
9403;DHT22;4741;49.834;10.740;2023-04-25T08:52:11;12.00;99.90
9403;DHT22;4741;49.834;10.740;2023-04-25T08:54:41;12.30;99.90
9403;DHT22;4741;49.834;10.740;2023-04-25T08:57:10;12.00;99.90
9403;DHT22;4741;49.834;10.740;2023-04-25T08:59:37;12.00;99.90
9403;DHT22;4741;49.834;10.740;2023-04-25T09:02:05;12.20;99.90
9403;DHT22;4741;49.834;10.740;2023-04-25T09:04:32;12.60;99.90
9403;DHT22;4741;49.834;10.740;2023-04-25T09:06:59;13.00;99.90
9403;DHT22;4741;49.834;10.740;2023-04-25T09:09:25;13.70;99.90
9403;DHT22;4741;49.834;10.740;2023-04-25T09:11:52;13.20;99.90
9403;DHT22;4741;49.834;10.740;2023-04-25T09:14:21;13.20;99.90
9403;DHT22;4741;49.834;10.740;2023-04-25T09:22:05;14.00;99.90
9403;DHT22;4741;49.834;10.740;2023-04-25T09:24:39;14.50;99.90
9403;DHT22;4741;49.834;10.740;2023-04-25T09:27:07;14.50;99.90
9403;DHT22;4741;49.834;10.740;2023-04-25T09:29:35;14.30;99.90
9403;DHT22;4741;49.834;10.740;2023-04-25T09:34:42;13.60;99.90
9403;DHT22;4741;49.834;10.740;2023-04-25T09:37:10;13.70;99.90
9403;DHT22;4741;49.834;10.740;2023-04-25T09:39:39;13.70;99.90
9403;DHT22;4741;49.834;10.740;2023-04-25T09:42:07;14.00;99.90
9403;DHT22;4741;49.834;10.740;2023-04-25T09:44:35;14.10;99.90
9403;DHT22;4741;49.834;10.740;2023-04-25T09:51:56;15.00;99.90
9403;DHT22;4741;49.834;10.740;2023-04-25T09:54:24;15.40;99.90
9403;DHT22;4741;49.834;10.740;2023-04-25T09:56:51;16.10;99.90
9403;DHT22;4741;49.834;10.740;2023-04-25T09:59:19;16.10;99.90
9403;DHT22;4741;49.834;10.740;2023-04-25T10:01:47;15.70;99.90
9403;DHT22;4741;49.834;10.740;2023-04-25T10:04:15;15.10;99.90
9403;DHT22;4741;49.834;10.740;2023-04-25T10:06:45;14.90;99.90
9403;DHT22;4741;49.834;10.740;2023-04-25T10:09:12;15.60;99.90
9403;DHT22;4741;49.834;10.740;2023-04-25T10:11:40;16.00;99.90
9403;DHT22;4741;49.834;10.740;2023-04-25T10:14:07;16.10;99.90
9403;DHT22;4741;49.834;10.740;2023-04-25T10:16:33;16.30;99.90
9403;DHT22;4741;49.834;10.740;2023-04-25T10:19:16;16.30;99.90
9403;DHT22;4741;49.834;10.740;2023-04-25T10:21:46;16.00;99.90
9403;DHT22;4741;49.834;10.740;2023-04-25T10:24:14;16.10;99.90
9403;DHT22;4741;49.834;10.740;2023-04-25T10:26:41;16.30;99.90
9403;DHT22;4741;49.834;10.740;2023-04-25T10:29:08;16.30;99.90
9403;DHT22;4741;49.834;10.740;2023-04-25T10:31:44;16.30;99.90
9403;DHT22;4741;49.834;10.740;2023-04-25T10:34:11;15.90;99.90
9403;DHT22;4741;49.834;10.740;2023-04-25T10:36:38;16.00;99.90
9403;DHT22;4741;49.834;10.740;2023-04-25T10:39:05;16.40;99.90
9403;DHT22;4741;49.834;10.740;2023-04-25T10:41:48;14.80;99.90
9403;DHT22;4741;49.834;10.740;2023-04-25T10:44:18;14.50;99.90
9403;DHT22;4741;49.834;10.740;2023-04-25T10:49:28;14.80;99.90
9403;DHT22;4741;49.834;10.740;2023-04-25T10:52:10;14.60;99.90
9403;DHT22;4741;49.834;10.740;2023-04-25T10:54:56;14.80;99.90
9403;DHT22;4741;49.834;10.740;2023-04-25T10:58:05;15.30;99.90
9403;DHT22;4741;49.834;10.740;2023-04-25T11:00:15;15.20;99.90
9403;DHT22;4741;49.834;10.740;2023-04-25T11:02:43;14.70;99.90
9403;DHT22;4741;49.834;10.740;2023-04-25T11:05:19;14.90;99.90
9403;DHT22;4741;49.834;10.740;2023-04-25T11:07:51;14.90;99.90
9403;DHT22;4741;49.834;10.740;2023-04-25T11:10:33;14.60;99.90
9403;DHT22;4741;49.834;10.740;2023-04-25T11:13:02;14.50;99.90
9403;DHT22;4741;49.834;10.740;2023-04-25T11:15:29;14.70;99.90
9403;DHT22;4741;49.834;10.740;2023-04-25T11:17:56;14.70;99.90
9403;DHT22;4741;49.834;10.740;2023-04-25T11:20:24;14.10;99.90
9403;DHT22;4741;49.834;10.740;2023-04-25T11:22:52;13.60;99.90
9403;DHT22;4741;49.834;10.740;2023-04-25T11:25:19;14.50;99.90
9403;DHT22;4741;49.834;10.740;2023-04-25T11:27:53;14.40;99.90
9403;DHT22;4741;49.834;10.740;2023-04-25T11:30:21;13.40;99.90
9403;DHT22;4741;49.834;10.740;2023-04-25T11:32:48;12.80;99.90
9403;DHT22;4741;49.834;10.740;2023-04-25T11:35:15;13.40;99.90
9403;DHT22;4741;49.834;10.740;2023-04-25T11:37:44;13.20;99.90
9403;DHT22;4741;49.834;10.740;2023-04-25T11:40:11;14.50;99.90
9403;DHT22;4741;49.834;10.740;2023-04-25T11:42:39;13.30;99.90
9403;DHT22;4741;49.834;10.740;2023-04-25T11:45:06;12.70;99.90
9403;DHT22;4741;49.834;10.740;2023-04-25T11:47:33;13.00;99.90
9403;DHT22;4741;49.834;10.740;2023-04-25T11:50:00;13.10;99.90
9403;DHT22;4741;49.834;10.740;2023-04-25T11:55:10;13.80;99.90
9403;DHT22;4741;49.834;10.740;2023-04-25T11:57:37;13.00;99.90
9403;DHT22;4741;49.834;10.740;2023-04-25T12:00:05;13.30;99.90
9403;DHT22;4741;49.834;10.740;2023-04-25T12:02:34;13.60;99.90
9403;DHT22;4741;49.834;10.740;2023-04-25T12:05:01;13.60;99.90
9403;DHT22;4741;49.834;10.740;2023-04-25T12:07:48;13.90;99.90
9403;DHT22;4741;49.834;10.740;2023-04-25T12:10:16;14.20;99.90
9403;DHT22;4741;49.834;10.740;2023-04-25T12:12:43;14.90;99.90
9403;DHT22;4741;49.834;10.740;2023-04-25T12:15:11;13.50;99.90
9403;DHT22;4741;49.834;10.740;2023-04-25T12:17:38;13.40;99.90
9403;DHT22;4741;49.834;10.740;2023-04-25T12:20:09;14.20;99.90
9403;DHT22;4741;49.834;10.740;2023-04-25T12:22:36;13.00;99.90
9403;DHT22;4741;49.834;10.740;2023-04-25T12:25:04;12.40;99.90
9403;DHT22;4741;49.834;10.740;2023-04-25T12:27:31;12.70;99.90
9403;DHT22;4741;49.834;10.740;2023-04-25T12:29:58;12.60;99.90
9403;DHT22;4741;49.834;10.740;2023-04-25T12:32:25;12.70;99.90
9403;DHT22;4741;49.834;10.740;2023-04-25T12:34:53;12.80;99.90
9403;DHT22;4741;49.834;10.740;2023-04-25T12:37:19;12.80;99.90
9403;DHT22;4741;49.834;10.740;2023-04-25T12:39:46;12.60;99.90
9403;DHT22;4741;49.834;10.740;2023-04-25T12:42:14;12.70;99.90
9403;DHT22;4741;49.834;10.740;2023-04-25T12:44:46;13.30;99.90
9403;DHT22;4741;49.834;10.740;2023-04-25T12:47:13;13.10;99.90
9403;DHT22;4741;49.834;10.740;2023-04-25T12:52:07;13.40;99.90
9403;DHT22;4741;49.834;10.740;2023-04-25T12:54:34;13.60;99.90
9403;DHT22;4741;49.834;10.740;2023-04-25T12:57:01;12.90;99.90
9403;DHT22;4741;49.834;10.740;2023-04-25T12:59:29;14.20;99.90
9403;DHT22;4741;49.834;10.740;2023-04-25T13:01:56;14.90;99.90
9403;DHT22;4741;49.834;10.740;2023-04-25T13:04:23;14.50;99.90
9403;DHT22;4741;49.834;10.740;2023-04-25T13:06:50;12.90;99.90
9403;DHT22;4741;49.834;10.740;2023-04-25T13:09:18;13.60;99.90
9403;DHT22;4741;49.834;10.740;2023-04-25T13:11:45;13.80;99.90
9403;DHT22;4741;49.834;10.740;2023-04-25T13:14:12;13.50;99.90
9403;DHT22;4741;49.834;10.740;2023-04-25T13:16:39;14.30;99.90
9403;DHT22;4741;49.834;10.740;2023-04-25T13:19:05;13.80;99.90
9403;DHT22;4741;49.834;10.740;2023-04-25T13:21:34;14.30;99.90
9403;DHT22;4741;49.834;10.740;2023-04-25T13:24:00;14.30;99.90
9403;DHT22;4741;49.834;10.740;2023-04-25T13:26:27;13.80;99.90
9403;DHT22;4741;49.834;10.740;2023-04-25T13:28:54;13.60;99.90
9403;DHT22;4741;49.834;10.740;2023-04-25T13:31:20;13.70;99.90
9403;DHT22;4741;49.834;10.740;2023-04-25T13:33:48;13.30;99.90
9403;DHT22;4741;49.834;10.740;2023-04-25T13:36:15;11.70;99.90
9403;DHT22;4741;49.834;10.740;2023-04-25T13:38:42;12.20;99.90
9403;DHT22;4741;49.834;10.740;2023-04-25T13:41:10;11.80;99.90
9403;DHT22;4741;49.834;10.740;2023-04-25T13:43:42;11.80;99.90
9403;DHT22;4741;49.834;10.740;2023-04-25T13:46:08;11.90;99.90
9403;DHT22;4741;49.834;10.740;2023-04-25T13:48:55;11.70;99.90
9403;DHT22;4741;49.834;10.740;2023-04-25T13:51:35;11.70;99.90
9403;DHT22;4741;49.834;10.740;2023-04-25T13:54:02;11.70;99.90
9403;DHT22;4741;49.834;10.740;2023-04-25T13:56:29;12.70;99.90
9403;DHT22;4741;49.834;10.740;2023-04-25T13:58:56;12.60;99.90
9403;DHT22;4741;49.834;10.740;2023-04-25T14:01:23;12.40;99.90
9403;DHT22;4741;49.834;10.740;2023-04-25T14:03:49;14.40;99.90
9403;DHT22;4741;49.834;10.740;2023-04-25T14:06:17;14.00;99.90
9403;DHT22;4741;49.834;10.740;2023-04-25T14:08:49;12.40;99.90
9403;DHT22;4741;49.834;10.740;2023-04-25T14:11:16;12.30;99.90
9403;DHT22;4741;49.834;10.740;2023-04-25T14:13:44;12.40;99.90
9403;DHT22;4741;49.834;10.740;2023-04-25T14:16:11;12.50;99.90
9403;DHT22;4741;49.834;10.740;2023-04-25T14:18:38;13.20;99.90
9403;DHT22;4741;49.834;10.740;2023-04-25T14:21:05;14.60;99.90
9403;DHT22;4741;49.834;10.740;2023-04-25T14:23:32;14.50;99.90
9403;DHT22;4741;49.834;10.740;2023-04-25T14:25:58;14.30;99.90
9403;DHT22;4741;49.834;10.740;2023-04-25T14:28:25;14.90;99.90
9403;DHT22;4741;49.834;10.740;2023-04-25T14:30:51;14.90;99.90
9403;DHT22;4741;49.834;10.740;2023-04-25T14:33:18;14.20;99.90
9403;DHT22;4741;49.834;10.740;2023-04-25T14:35:45;13.20;99.90
9403;DHT22;4741;49.834;10.740;2023-04-25T14:38:12;13.30;99.90
9403;DHT22;4741;49.834;10.740;2023-04-25T14:40:39;13.30;99.90
9403;DHT22;4741;49.834;10.740;2023-04-25T14:43:05;12.70;99.90
9403;DHT22;4741;49.834;10.740;2023-04-25T14:45:33;13.20;99.90
9403;DHT22;4741;49.834;10.740;2023-04-25T14:48:00;13.60;99.90
9403;DHT22;4741;49.834;10.740;2023-04-25T14:52:54;12.50;99.90
9403;DHT22;4741;49.834;10.740;2023-04-25T14:55:25;12.60;99.90
9403;DHT22;4741;49.834;10.740;2023-04-25T14:57:52;12.80;99.90
9403;DHT22;4741;49.834;10.740;2023-04-25T15:00:22;12.90;99.90
9403;DHT22;4741;49.834;10.740;2023-04-25T15:02:49;12.90;99.90
9403;DHT22;4741;49.834;10.740;2023-04-25T15:05:16;13.60;99.90
9403;DHT22;4741;49.834;10.740;2023-04-25T15:07:43;13.00;99.90
9403;DHT22;4741;49.834;10.740;2023-04-25T15:10:10;13.50;99.90
9403;DHT22;4741;49.834;10.740;2023-04-25T15:12:42;13.50;99.90
9403;DHT22;4741;49.834;10.740;2023-04-25T15:15:11;13.10;99.90
9403;DHT22;4741;49.834;10.740;2023-04-25T15:17:45;12.80;99.90
9403;DHT22;4741;49.834;10.740;2023-04-25T15:20:12;12.60;99.90
9403;DHT22;4741;49.834;10.740;2023-04-25T15:22:39;12.40;99.90
9403;DHT22;4741;49.834;10.740;2023-04-25T15:25:07;13.10;99.90
9403;DHT22;4741;49.834;10.740;2023-04-25T15:27:37;12.00;99.90
9403;DHT22;4741;49.834;10.740;2023-04-25T15:30:07;12.00;99.90
9403;DHT22;4741;49.834;10.740;2023-04-25T15:32:34;11.80;99.90
9403;DHT22;4741;49.834;10.740;2023-04-25T15:35:02;11.50;99.90
9403;DHT22;4741;49.834;10.740;2023-04-25T15:37:29;12.10;99.90
9403;DHT22;4741;49.834;10.740;2023-04-25T15:40:06;11.70;99.90
9403;DHT22;4741;49.834;10.740;2023-04-25T15:45:05;12.40;99.90
9403;DHT22;4741;49.834;10.740;2023-04-25T15:47:35;12.30;99.90
9403;DHT22;4741;49.834;10.740;2023-04-25T15:50:07;12.10;99.90
9403;DHT22;4741;49.834;10.740;2023-04-25T15:52:44;12.10;99.90
9403;DHT22;4741;49.834;10.740;2023-04-25T15:55:11;11.90;99.90
9403;DHT22;4741;49.834;10.740;2023-04-25T15:57:39;11.90;99.90
9403;DHT22;4741;49.834;10.740;2023-04-25T16:00:07;12.00;99.90
9403;DHT22;4741;49.834;10.740;2023-04-25T16:02:38;11.50;99.90
9403;DHT22;4741;49.834;10.740;2023-04-25T16:05:06;12.10;99.90
9403;DHT22;4741;49.834;10.740;2023-04-25T16:07:33;11.20;99.90
9403;DHT22;4741;49.834;10.740;2023-04-25T16:10:00;10.40;99.90
9403;DHT22;4741;49.834;10.740;2023-04-25T16:12:27;10.90;99.90
9403;DHT22;4741;49.834;10.740;2023-04-25T16:14:54;11.40;99.90
9403;DHT22;4741;49.834;10.740;2023-04-25T16:17:21;10.70;99.90
9403;DHT22;4741;49.834;10.740;2023-04-25T16:19:48;11.30;99.90
9403;DHT22;4741;49.834;10.740;2023-04-25T16:22:16;10.80;99.90
9403;DHT22;4741;49.834;10.740;2023-04-25T16:24:43;10.70;99.90
9403;DHT22;4741;49.834;10.740;2023-04-25T16:27:10;11.00;99.90
9403;DHT22;4741;49.834;10.740;2023-04-25T16:29:37;10.70;99.90
9403;DHT22;4741;49.834;10.740;2023-04-25T16:32:03;11.10;99.90
9403;DHT22;4741;49.834;10.740;2023-04-25T16:34:30;11.30;99.90